DENTE EDDG-ZZZZ
Flight info
| Callsign | DENTE |
|---|---|
| Flight time | N/A |
| Altitude | |
| Route | |
| Aircraft | C172 |
Departure
| Time | 2026-04-25 13:38 |
|---|---|
| Airport | Münster Osnabrück Airport (EDDG) |
Arrival
| Time | N/A |
|---|---|
| Airport | ZZZZ |
| Time | Latitude | Longitude | Altitude | Speed | Heading |
|---|---|---|---|---|---|
| 2026-04-25 13:38 | 52.09975 | 7.70413 | 1269 ft | 116 kts | 205° |
| 2026-04-25 13:38 | 52.09238 | 7.69908 | 1217 ft | 115 kts | 206° |
| 2026-04-25 13:38 | 52.08434 | 7.69607 | 1078 ft | 120 kts | 197° |
| 2026-04-25 13:39 | 52.07608 | 7.69418 | 943 ft | 119 kts | 192° |
| 2026-04-25 13:39 | 52.06753 | 7.69328 | 750 ft | 121 kts | 193° |
| 2026-04-25 13:39 | 52.05964 | 7.69081 | 734 ft | 113 kts | 207° |
| 2026-04-25 13:39 | 52.05298 | 7.68584 | 820 ft | 99 kts | 218° |
| 2026-04-25 13:40 | 52.04692 | 7.68126 | 892 ft | 96 kts | 209° |
| 2026-04-25 13:40 | 52.04120 | 7.67567 | 931 ft | 95 kts | 224° |
| 2026-04-25 13:40 | 52.03535 | 7.67032 | 992 ft | 98 kts | 209° |
| 2026-04-25 13:40 | 52.02825 | 7.66655 | 853 ft | 113 kts | 201° |
| 2026-04-25 13:41 | 52.02091 | 7.66365 | 845 ft | 103 kts | 204° |
| 2026-04-25 13:41 | 52.01400 | 7.66082 | 781 ft | 102 kts | 199° |
| 2026-04-25 13:41 | 52.00690 | 7.66019 | 818 ft | 96 kts | 194° |
| 2026-04-25 13:41 | 52.00081 | 7.65950 | 944 ft | 84 kts | 191° |
| 2026-04-25 13:42 | 51.99492 | 7.65929 | 1066 ft | 78 kts | 191° |
| 2026-04-25 13:42 | 51.98918 | 7.65948 | 1004 ft | 90 kts | 180° |
| 2026-04-25 13:42 | 51.98308 | 7.65862 | 1081 ft | 84 kts | 200° |
| 2026-04-25 13:42 | 51.97712 | 7.65831 | 1141 ft | 87 kts | 199° |
| 2026-04-25 13:43 | 51.97083 | 7.65707 | 1087 ft | 99 kts | 198° |
| 2026-04-25 13:43 | 51.96420 | 7.65535 | 1177 ft | 90 kts | 196° |
| 2026-04-25 13:43 | 51.95781 | 7.65206 | 1006 ft | 100 kts | 217° |
| 2026-04-25 13:43 | 51.95130 | 7.64731 | 825 ft | 112 kts | 205° |
| 2026-04-25 13:44 | 51.94434 | 7.64393 | 1001 ft | 97 kts | 207° |
| 2026-04-25 13:44 | 51.93818 | 7.63892 | 824 ft | 110 kts | 219° |
| 2026-04-25 13:44 | 51.93151 | 7.63421 | 1038 ft | 89 kts | 206° |
| 2026-04-25 13:44 | 51.92502 | 7.63219 | 1257 ft | 103 kts | 192° |
| 2026-04-25 13:45 | 51.91796 | 7.63034 | 1567 ft | 97 kts | 199° |
| 2026-04-25 13:45 | 51.91144 | 7.62859 | 1942 ft | 87 kts | 187° |
| 2026-04-25 13:45 | 51.90466 | 7.62960 | 2045 ft | 116 kts | 188° |
| 2026-04-25 13:45 | 51.89666 | 7.62726 | 2164 ft | 117 kts | 215° |
| 2026-04-25 13:46 | 51.89103 | 7.61830 | 2297 ft | 115 kts | 241° |
| 2026-04-25 13:46 | 51.88795 | 7.60639 | 2149 ft | 114 kts | 265° |
| 2026-04-25 13:46 | 51.88753 | 7.59394 | 1976 ft | 113 kts | 260° |
| 2026-04-25 13:46 | 51.88244 | 7.58381 | 1609 ft | 130 kts | 215° |
| 2026-04-25 13:47 | 51.87331 | 7.57908 | 1364 ft | 130 kts | 198° |
| 2026-04-25 13:47 | 51.86528 | 7.57744 | 1560 ft | 116 kts | 184° |
| 2026-04-25 13:47 | 51.85724 | 7.57772 | 1489 ft | 117 kts | 179° |
| 2026-04-25 13:47 | 51.84960 | 7.57971 | 1599 ft | 104 kts | 172° |
| 2026-04-25 13:48 | 51.84326 | 7.58339 | 1797 ft | 91 kts | 160° |
| 2026-04-25 13:48 | 51.83710 | 7.58876 | 1753 ft | 108 kts | 156° |
| 2026-04-25 13:48 | 51.83071 | 7.59540 | 1806 ft | 117 kts | 152° |
| 2026-04-25 13:48 | 51.82418 | 7.60331 | 1916 ft | 113 kts | 149° |
| 2026-04-25 13:49 | 51.81809 | 7.61081 | 2020 ft | 109 kts | 151° |
| 2026-04-25 13:49 | 51.81216 | 7.61790 | 2134 ft | 104 kts | 149° |
| 2026-04-25 13:49 | 51.80534 | 7.62511 | 2311 ft | 126 kts | 155° |
| 2026-04-25 13:49 | 51.79751 | 7.63090 | 2273 ft | 120 kts | 165° |
| 2026-04-25 13:50 | 51.79000 | 7.63518 | 2374 ft | 116 kts | 164° |
| 2026-04-25 13:50 | 51.78225 | 7.63926 | 2296 ft | 120 kts | 172° |
| 2026-04-25 13:50 | 51.77383 | 7.64124 | 2174 ft | 121 kts | 182° |
| 2026-04-25 13:50 | 51.76545 | 7.64149 | 2269 ft | 114 kts | 185° |
| 2026-04-25 13:51 | 51.75750 | 7.64256 | 2191 ft | 118 kts | 177° |
| 2026-04-25 13:51 | 51.74942 | 7.64508 | 2189 ft | 120 kts | 174° |
| 2026-04-25 13:51 | 51.74120 | 7.64842 | 2068 ft | 124 kts | 170° |
| 2026-04-25 13:51 | 51.73314 | 7.65301 | 1967 ft | 122 kts | 167° |
| 2026-04-25 13:52 | 51.72599 | 7.65996 | 1905 ft | 127 kts | 133° |
| 2026-04-25 13:52 | 51.71977 | 7.66795 | 2036 ft | 109 kts | 164° |
| 2026-04-25 13:52 | 51.71252 | 7.67272 | 1971 ft | 117 kts | 168° |
| 2026-04-25 13:52 | 51.70425 | 7.67486 | 1853 ft | 127 kts | 183° |
| 2026-04-25 13:53 | 51.69540 | 7.67302 | 1769 ft | 123 kts | 202° |
| 2026-04-25 13:53 | 51.68718 | 7.66957 | 1759 ft | 128 kts | 183° |
| 2026-04-25 13:53 | 51.67874 | 7.67346 | 1765 ft | 126 kts | 169° |
| 2026-04-25 13:53 | 51.67041 | 7.67749 | 1765 ft | 123 kts | 173° |
| 2026-04-25 13:54 | 51.66288 | 7.67426 | 1751 ft | 110 kts | 232° |
| 2026-04-25 13:54 | 51.65777 | 7.66543 | 1783 ft | 107 kts | 232° |
| 2026-04-25 13:54 | 51.65269 | 7.65708 | 1763 ft | 100 kts | 232° |
| 2026-04-25 13:54 | 51.64818 | 7.64963 | 1777 ft | 97 kts | 232° |
| 2026-04-25 13:55 | 51.64396 | 7.64262 | 1680 ft | 104 kts | 234° |
| 2026-04-25 13:55 | 51.63951 | 7.63370 | 1594 ft | 100 kts | 234° |
| 2026-04-25 13:55 | 51.63832 | 7.62503 | 1695 ft | 78 kts | 305° |
| 2026-04-25 13:55 | 51.64330 | 7.62400 | 1759 ft | 80 kts | 9° |
| 2026-04-25 13:56 | 51.64865 | 7.62610 | 1791 ft | 81 kts | 4° |
| 2026-04-25 13:56 | 51.65428 | 7.63008 | 1794 ft | 98 kts | 50° |
| 2026-04-25 13:56 | 51.65478 | 7.64133 | 1731 ft | 113 kts | 117° |
| 2026-04-25 13:56 | 51.64875 | 7.64910 | 1545 ft | 120 kts | 179° |
| 2026-04-25 13:57 | 51.64082 | 7.64621 | 1441 ft | 114 kts | 210° |
| 2026-04-25 13:57 | 51.63845 | 7.64453 | 1364 ft | 116 kts | 211° |
| 2026-04-25 13:57 | 51.62652 | 7.63489 | 1279 ft | 116 kts | 212° |
| 2026-04-25 13:57 | 51.61947 | 7.62852 | 1271 ft | 118 kts | 220° |
| 2026-04-25 13:58 | 51.61297 | 7.62109 | 1221 ft | 113 kts | 219° |
| 2026-04-25 13:58 | 51.60612 | 7.61431 | 1048 ft | 115 kts | 217° |
| 2026-04-25 13:58 | 51.59862 | 7.60950 | 902 ft | 119 kts | 199° |